createdAt,value
2017-06-10T00:00:11.904Z,17.16
2017-06-10T00:01:11.854Z,17.16
2017-06-10T00:02:11.875Z,17.11
2017-06-10T00:03:11.520Z,17.06
2017-06-10T00:04:11.170Z,17.08
2017-06-10T00:05:11.464Z,17.12
2017-06-10T00:06:11.452Z,17.06
2017-06-10T00:07:11.434Z,17.09
2017-06-10T00:08:11.725Z,17.09
2017-06-10T00:09:11.800Z,17.01
2017-06-10T00:10:11.682Z,16.98
2017-06-10T00:11:11.404Z,16.93
2017-06-10T00:12:11.360Z,16.93
2017-06-10T00:13:11.646Z,16.96
2017-06-10T00:14:11.330Z,16.93
2017-06-10T00:15:11.293Z,16.91
2017-06-10T00:16:11.293Z,16.91
2017-06-10T00:17:11.590Z,16.89
2017-06-10T00:18:11.261Z,16.93
2017-06-10T00:19:11.230Z,16.91
2017-06-10T00:20:11.535Z,16.97
2017-06-10T00:21:11.545Z,16.97
2017-06-10T00:22:11.185Z,17
2017-06-10T00:23:11.162Z,16.98
2017-06-10T00:24:11.171Z,17.03
2017-06-10T00:25:10.831Z,17.01
2017-06-10T00:26:11.118Z,16.94
2017-06-10T00:27:11.110Z,16.96
2017-06-10T00:28:10.782Z,16.96
2017-06-10T00:29:11.403Z,16.96
2017-06-10T00:30:11.051Z,16.94
2017-06-10T00:31:11.039Z,17.08
2017-06-10T00:32:11.331Z,17
2017-06-10T00:33:11.008Z,17.01
2017-06-10T00:34:11.007Z,16.96
2017-06-10T00:35:11.290Z,16.97
2017-06-10T00:36:10.982Z,17.08
2017-06-10T00:37:10.935Z,16.96
2017-06-10T00:38:10.924Z,16.97
2017-06-10T00:39:11.221Z,16.98
2017-06-10T00:40:11.194Z,16.9
2017-06-10T00:41:11.214Z,16.83
2017-06-10T00:42:10.861Z,16.85
2017-06-10T00:43:11.152Z,16.82
2017-06-10T00:44:11.131Z,16.83
2017-06-10T00:45:11.141Z,16.87
2017-06-10T00:46:10.804Z,16.89
2017-06-10T00:47:11.097Z,16.83
2017-06-10T00:48:11.066Z,16.81
2017-06-10T00:49:10.733Z,16.87
2017-06-10T00:50:11.061Z,16.9
2017-06-10T00:51:11.022Z,16.82
2017-06-10T00:52:10.680Z,16.79
2017-06-10T00:53:10.360Z,16.78
2017-06-10T00:54:10.963Z,16.68
2017-06-10T00:55:10.951Z,16.74
2017-06-10T00:56:10.621Z,16.81
2017-06-10T00:57:10.920Z,16.83
2017-06-10T00:58:10.921Z,16.74
2017-06-10T00:59:10.589Z,16.75
2017-06-10T01:00:10.870Z,16.72
2017-06-10T01:01:10.874Z,16.72
2017-06-10T01:02:10.532Z,16.79
2017-06-10T01:03:10.822Z,16.72
2017-06-10T01:04:10.510Z,16.61
2017-06-10T01:05:10.780Z,16.76
2017-06-10T01:06:10.781Z,16.6
2017-06-10T01:07:10.771Z,16.64
2017-06-10T01:08:10.184Z,16.56
2017-06-10T01:09:10.407Z,16.75
2017-06-10T01:10:10.690Z,16.78
2017-06-10T01:11:10.691Z,16.71
2017-06-10T01:12:10.432Z,16.76
2017-06-10T01:13:10.653Z,16.74
2017-06-10T01:14:10.650Z,16.66
2017-06-10T01:15:10.617Z,16.72
2017-06-10T01:16:09.985Z,16.63
2017-06-10T01:17:10.337Z,16.72
2017-06-10T01:18:10.259Z,16.68
2017-06-10T01:19:10.245Z,16.71
2017-06-10T01:20:10.525Z,16.72
2017-06-10T01:21:10.526Z,16.71
2017-06-10T01:22:10.502Z,16.75
2017-06-10T01:23:10.282Z,16.64
2017-06-10T01:24:10.463Z,16.58
2017-06-10T01:25:10.448Z,16.48
2017-06-10T01:26:10.121Z,16.41
2017-06-10T01:27:10.216Z,16.27
2017-06-10T01:28:09.861Z,16.36
2017-06-10T01:29:10.161Z,16.26
2017-06-10T01:30:09.764Z,16.15
2017-06-10T01:31:10.051Z,16.21
2017-06-10T01:32:10.037Z,16.16
2017-06-10T01:33:10.085Z,16.32
2017-06-10T01:34:10.003Z,16.26
2017-06-10T01:35:10.293Z,16.2
2017-06-10T01:36:09.949Z,15.92
2017-06-10T01:37:09.943Z,15.94
2017-06-10T01:38:10.233Z,15.9
2017-06-10T01:39:10.211Z,15.77
2017-06-10T01:40:09.892Z,15.79
2017-06-10T01:41:09.892Z,15.77
2017-06-10T01:42:09.860Z,15.9
2017-06-10T01:43:09.886Z,15.98
2017-06-10T01:44:09.818Z,16.05
2017-06-10T01:45:09.806Z,15.97
2017-06-10T01:46:10.111Z,15.98
2017-06-10T01:47:10.082Z,15.97
2017-06-10T01:48:09.748Z,15.97
2017-06-10T01:49:09.735Z,15.94
2017-06-10T01:50:09.721Z,16.02
2017-06-10T01:51:09.815Z,16.02
2017-06-10T01:52:09.972Z,16.04
2017-06-10T01:53:09.975Z,16.08
2017-06-10T01:54:09.950Z,15.92
2017-06-10T01:55:09.935Z,15.79
2017-06-10T01:56:09.919Z,15.58
2017-06-10T01:57:09.599Z,15.67
2017-06-10T01:58:09.879Z,15.57
2017-06-10T01:59:09.618Z,15.53
2017-06-10T02:00:09.861Z,15.61
2017-06-10T02:01:09.540Z,15.61
2017-06-10T02:02:09.515Z,15.69
2017-06-10T02:03:09.802Z,15.65
2017-06-10T02:04:09.788Z,15.58
2017-06-10T02:05:09.511Z,15.54
2017-06-10T02:06:09.751Z,15.6
2017-06-10T02:07:09.741Z,15.43
2017-06-10T02:08:09.714Z,15.47
2017-06-10T02:09:09.384Z,15.47
2017-06-10T02:10:09.674Z,15.54
2017-06-10T02:11:09.682Z,15.49
2017-06-10T02:12:09.662Z,15.44
2017-06-10T02:13:09.330Z,15.49
2017-06-10T02:14:09.614Z,15.53
2017-06-10T02:15:09.588Z,15.53
2017-06-10T02:16:09.269Z,15.61
2017-06-10T02:17:09.563Z,15.53
2017-06-10T02:18:09.527Z,15.57
2017-06-10T02:19:09.221Z,15.53
2017-06-10T02:20:09.198Z,15.58
2017-06-10T02:21:08.881Z,15.57
2017-06-10T02:22:09.163Z,15.49
2017-06-10T02:23:09.142Z,15.49
2017-06-10T02:24:09.438Z,15.58
2017-06-10T02:25:09.415Z,15.61
2017-06-10T02:26:09.402Z,15.57
2017-06-10T02:27:09.073Z,15.61
2017-06-10T02:28:08.750Z,15.57
2017-06-10T02:29:09.351Z,15.37
2017-06-10T02:30:09.333Z,15.42
2017-06-10T02:31:08.724Z,15.43
2017-06-10T02:32:09.301Z,15.39
2017-06-10T02:33:09.293Z,15.32
2017-06-10T02:34:08.950Z,15.27
2017-06-10T02:35:09.250Z,15.34
2017-06-10T02:36:08.922Z,15.4
2017-06-10T02:37:09.221Z,15.42
2017-06-10T02:38:08.910Z,15.43
2017-06-10T02:39:08.885Z,15.46
2017-06-10T02:40:08.850Z,15.53
2017-06-10T02:41:08.850Z,15.29
2017-06-10T02:42:09.132Z,15.31
2017-06-10T02:43:09.108Z,15.25
2017-06-10T02:44:09.094Z,15.32
2017-06-10T02:45:09.099Z,15.24
2017-06-10T02:46:09.114Z,15.22
2017-06-10T02:47:08.732Z,15.1
2017-06-10T02:48:08.796Z,15.12
2017-06-10T02:49:08.702Z,15.02
2017-06-10T02:50:08.384Z,14.91
2017-06-10T02:51:08.665Z,15
2017-06-10T02:52:08.709Z,15
2017-06-10T02:53:08.318Z,15.09
2017-06-10T02:54:09.011Z,15.06
2017-06-10T02:55:08.607Z,15.2
2017-06-10T02:56:08.645Z,15.13
2017-06-10T02:57:08.564Z,15.14
2017-06-10T02:58:08.940Z,15
2017-06-10T02:59:08.521Z,14.68
2017-06-10T03:00:08.512Z,14.7
2017-06-10T03:01:08.792Z,14.85
2017-06-10T03:02:08.481Z,14.94
2017-06-10T03:03:08.449Z,14.85
2017-06-10T03:04:08.121Z,15
2017-06-10T03:05:08.753Z,14.98
2017-06-10T03:06:08.743Z,14.87
2017-06-10T03:07:08.793Z,14.8
2017-06-10T03:08:08.387Z,14.85
2017-06-10T03:09:08.746Z,14.84
2017-06-10T03:10:08.472Z,14.68
2017-06-10T03:11:08.630Z,14.7
2017-06-10T03:12:08.594Z,14.68
2017-06-10T03:13:08.320Z,14.69
2017-06-10T03:14:08.573Z,14.68
2017-06-10T03:15:08.641Z,14.7
2017-06-10T03:16:08.552Z,14.69
2017-06-10T03:17:07.890Z,14.68
2017-06-10T03:18:08.188Z,14.7
2017-06-10T03:19:08.491Z,14.73
2017-06-10T03:20:08.529Z,14.57
2017-06-10T03:21:08.539Z,14.62
2017-06-10T03:22:08.439Z,14.79
2017-06-10T03:23:08.402Z,14.91
2017-06-10T03:24:07.821Z,14.73
2017-06-10T03:25:08.364Z,14.72
2017-06-10T03:26:08.357Z,14.7
2017-06-10T03:27:08.349Z,14.6
2017-06-10T03:28:07.713Z,14.72
2017-06-10T03:29:07.993Z,14.85
2017-06-10T03:30:07.976Z,14.73
2017-06-10T03:31:08.379Z,14.62
2017-06-10T03:32:07.927Z,14.8
2017-06-10T03:33:08.317Z,14.8
2017-06-10T03:34:07.608Z,14.8
2017-06-10T03:35:07.876Z,14.85
2017-06-10T03:36:07.850Z,14.75
2017-06-10T03:37:08.055Z,14.77
2017-06-10T03:38:07.819Z,14.87
2017-06-10T03:39:08.142Z,14.89
2017-06-10T03:40:07.808Z,14.85
2017-06-10T03:41:07.871Z,14.94
2017-06-10T03:42:07.754Z,15.03
2017-06-10T03:43:08.086Z,14.98
2017-06-10T03:44:08.014Z,15.03
2017-06-10T03:45:07.724Z,15.13
2017-06-10T03:46:07.679Z,15
2017-06-10T03:47:07.661Z,15.09
2017-06-10T03:48:07.653Z,15.04
2017-06-10T03:49:07.938Z,15.03
2017-06-10T03:50:07.931Z,15
2017-06-10T03:51:07.901Z,14.95
2017-06-10T03:52:07.952Z,14.96
2017-06-10T03:53:07.568Z,14.91
2017-06-10T03:54:07.245Z,14.88
2017-06-10T03:55:07.528Z,14.91
2017-06-10T03:56:07.801Z,15.03
2017-06-10T03:57:07.824Z,15.06
2017-06-10T03:58:07.468Z,14.88
2017-06-10T03:59:07.751Z,14.65
2017-06-10T04:00:07.431Z,14.77
2017-06-10T04:01:07.106Z,14.85
2017-06-10T04:02:07.763Z,14.91
2017-06-10T04:03:07.373Z,14.98
2017-06-10T04:04:07.670Z,15
2017-06-10T04:05:07.653Z,14.95
2017-06-10T04:06:07.316Z,15.09
2017-06-10T04:07:07.319Z,15.17
2017-06-10T04:08:06.984Z,15.09
2017-06-10T04:09:07.573Z,15.13
2017-06-10T04:10:07.563Z,15.07
2017-06-10T04:11:07.223Z,15.06
2017-06-10T04:12:07.224Z,15.03
2017-06-10T04:13:07.509Z,14.96
2017-06-10T04:14:07.502Z,15.06
2017-06-10T04:15:07.480Z,15.07
2017-06-10T04:16:06.833Z,15.12
2017-06-10T04:17:07.130Z,15.16
2017-06-10T04:18:07.428Z,14.91
2017-06-10T04:19:07.391Z,14.92
2017-06-10T04:20:07.081Z,15.1
2017-06-10T04:21:07.054Z,15.17
2017-06-10T04:22:07.339Z,15.28
2017-06-10T04:23:07.023Z,15.22
2017-06-10T04:24:07.359Z,15.29
2017-06-10T04:25:06.984Z,15.22
2017-06-10T04:26:07.281Z,15.39
2017-06-10T04:27:06.950Z,15.42
2017-06-10T04:28:07.262Z,15.42
2017-06-10T04:29:07.223Z,15.43
2017-06-10T04:30:06.902Z,15.31
2017-06-10T04:31:06.911Z,15.32
2017-06-10T04:32:07.182Z,15.2
2017-06-10T04:33:07.140Z,15.17
2017-06-10T04:34:07.185Z,15.2
2017-06-10T04:35:06.494Z,15.13
2017-06-10T04:36:07.143Z,15.21
2017-06-10T04:37:06.784Z,15.07
2017-06-10T04:38:07.064Z,15.2
2017-06-10T04:39:07.040Z,15.13
2017-06-10T04:40:06.873Z,15.09
2017-06-10T04:41:06.705Z,15.09
2017-06-10T04:42:06.384Z,15.06
2017-06-10T04:43:06.979Z,15.1
2017-06-10T04:44:06.347Z,15.03
2017-06-10T04:45:06.635Z,15.06
2017-06-10T04:46:06.911Z,15.1
2017-06-10T04:47:06.300Z,15.07
2017-06-10T04:48:06.581Z,15.13
2017-06-10T04:49:06.884Z,15.12
2017-06-10T04:50:06.868Z,15.24
2017-06-10T04:51:06.844Z,15.28
2017-06-10T04:52:06.515Z,15.27
2017-06-10T04:53:06.801Z,15.39
2017-06-10T04:54:06.823Z,15.43
2017-06-10T04:55:06.764Z,15.46
2017-06-10T04:56:06.760Z,15.49
2017-06-10T04:57:06.157Z,15.47
2017-06-10T04:58:06.408Z,15.44
2017-06-10T04:59:06.085Z,15.53
2017-06-10T05:00:06.403Z,15.5
2017-06-10T05:01:06.700Z,15.46
2017-06-10T05:02:06.339Z,15.46
2017-06-10T05:03:06.622Z,15.54
2017-06-10T05:04:06.609Z,15.49
2017-06-10T05:05:06.281Z,15.52
2017-06-10T05:06:06.577Z,15.58
2017-06-10T05:07:06.552Z,15.52
2017-06-10T05:08:06.220Z,15.54
2017-06-10T05:09:06.203Z,15.69
2017-06-10T05:10:06.544Z,15.53
2017-06-10T05:11:06.482Z,15.65
2017-06-10T05:12:06.469Z,15.71
2017-06-10T05:13:06.141Z,15.82
2017-06-10T05:14:06.112Z,15.8
2017-06-10T05:15:06.447Z,15.82
2017-06-10T05:16:06.103Z,15.62
2017-06-10T05:17:06.371Z,15.64
2017-06-10T05:18:06.053Z,15.76
2017-06-10T05:19:06.040Z,15.77
2017-06-10T05:20:06.010Z,15.77
2017-06-10T05:21:06.023Z,15.49
2017-06-10T05:22:06.285Z,15.57
2017-06-10T05:23:05.662Z,15.49
2017-06-10T05:24:05.643Z,15.57
2017-06-10T05:25:05.693Z,15.54
2017-06-10T05:26:05.917Z,15.65
2017-06-10T05:27:05.935Z,15.67
2017-06-10T05:28:06.181Z,15.77
2017-06-10T05:29:05.900Z,15.89
2017-06-10T05:30:05.533Z,15.8
2017-06-10T05:31:05.838Z,15.75
2017-06-10T05:32:05.810Z,15.76
2017-06-10T05:33:05.494Z,15.69
2017-06-10T05:34:06.081Z,15.72
2017-06-10T05:35:06.063Z,15.8
2017-06-10T05:36:05.459Z,15.95
2017-06-10T05:37:06.062Z,15.79
2017-06-10T05:38:06.028Z,15.89
2017-06-10T05:39:06.012Z,16.01
2017-06-10T05:40:05.981Z,15.98
2017-06-10T05:41:05.664Z,16.05
2017-06-10T05:42:05.641Z,16.04
2017-06-10T05:43:05.625Z,16.17
2017-06-10T05:44:05.718Z,16.2
2017-06-10T05:45:05.893Z,16.32
2017-06-10T05:46:05.879Z,16.24
2017-06-10T05:47:05.871Z,16.17
2017-06-10T05:48:05.863Z,16.15
2017-06-10T05:49:05.860Z,16.13
2017-06-10T05:50:05.510Z,16.15
2017-06-10T05:51:05.803Z,16.26
2017-06-10T05:52:05.469Z,16.35
2017-06-10T05:53:05.470Z,16.36
2017-06-10T05:54:05.764Z,16.42
2017-06-10T05:55:05.421Z,16.45
2017-06-10T05:56:05.720Z,16.57
2017-06-10T05:57:05.381Z,16.45
2017-06-10T05:58:05.390Z,16.48
2017-06-10T05:59:05.056Z,16.46
2017-06-10T06:00:05.342Z,16.48
2017-06-10T06:01:05.632Z,16.43
2017-06-10T06:02:05.297Z,16.38
2017-06-10T06:03:05.280Z,16.35
2017-06-10T06:04:05.280Z,16.34
2017-06-10T06:05:05.245Z,16.46
2017-06-10T06:06:05.542Z,16.57
2017-06-10T06:07:04.907Z,16.74
2017-06-10T06:08:05.203Z,16.71
2017-06-10T06:09:04.903Z,16.69
2017-06-10T06:10:05.168Z,16.78
2017-06-10T06:11:05.160Z,16.71
2017-06-10T06:12:05.136Z,16.79
2017-06-10T06:13:05.131Z,16.71
2017-06-10T06:14:05.090Z,16.83
2017-06-10T06:15:05.092Z,16.85
2017-06-10T06:16:05.370Z,16.91
2017-06-10T06:17:05.045Z,16.97
2017-06-10T06:18:05.044Z,16.94
2017-06-10T06:19:05.323Z,16.9
2017-06-10T06:20:05.012Z,17.09
2017-06-10T06:21:04.978Z,17.06
2017-06-10T06:22:04.660Z,17.16
2017-06-10T06:23:04.970Z,17.09
2017-06-10T06:24:05.252Z,17.12
2017-06-10T06:25:04.983Z,17.15
2017-06-10T06:26:04.903Z,17.05
2017-06-10T06:27:04.929Z,17.11
2017-06-10T06:28:04.871Z,17.14
2017-06-10T06:29:04.855Z,17.06
2017-06-10T06:30:05.160Z,17.12
2017-06-10T06:31:05.133Z,17.06
2017-06-10T06:32:05.122Z,17.15
2017-06-10T06:33:04.529Z,17.16
2017-06-10T06:34:05.102Z,17.18
2017-06-10T06:35:05.084Z,17.18
2017-06-10T06:36:05.041Z,17.21
2017-06-10T06:37:04.529Z,17.33
2017-06-10T06:38:05.022Z,17.36
2017-06-10T06:39:05.002Z,17.48
2017-06-10T06:40:05.002Z,17.44
2017-06-10T06:41:04.970Z,17.34
2017-06-10T06:42:04.962Z,17.45
2017-06-10T06:43:05.052Z,17.55
2017-06-10T06:44:04.622Z,17.51
2017-06-10T06:45:05.031Z,17.55
2017-06-10T06:46:04.690Z,17.67
2017-06-10T06:47:04.890Z,17.67
2017-06-10T06:48:04.549Z,17.67
2017-06-10T06:49:04.545Z,17.6
2017-06-10T06:50:04.858Z,17.55
2017-06-10T06:51:04.924Z,17.42
2017-06-10T06:52:04.818Z,17.44
2017-06-10T06:53:04.589Z,17.51
2017-06-10T06:54:04.461Z,17.55
2017-06-10T06:55:04.862Z,17.44
2017-06-10T06:56:04.743Z,17.46
2017-06-10T06:57:04.540Z,17.46
2017-06-10T06:58:04.809Z,17.64
2017-06-10T06:59:04.393Z,17.58
2017-06-10T07:00:04.422Z,17.68
2017-06-10T07:01:04.401Z,17.75
2017-06-10T07:02:04.331Z,17.68
2017-06-10T07:03:04.305Z,17.68
2017-06-10T07:04:04.710Z,17.65
2017-06-10T07:05:04.294Z,17.67
2017-06-10T07:06:04.291Z,17.64
2017-06-10T07:07:04.290Z,17.65
2017-06-10T07:08:04.578Z,17.83
2017-06-10T07:09:04.219Z,17.86
2017-06-10T07:10:04.523Z,17.83
2017-06-10T07:11:04.652Z,17.98
2017-06-10T07:12:04.239Z,18
2017-06-10T07:13:04.560Z,18.19
2017-06-10T07:14:04.492Z,18.29
2017-06-10T07:15:04.426Z,18.25
2017-06-10T07:16:04.162Z,18.3
2017-06-10T07:17:04.104Z,18.29
2017-06-10T07:18:04.091Z,18.4
2017-06-10T07:19:04.073Z,18.4
2017-06-10T07:20:04.405Z,18.4
2017-06-10T07:21:04.040Z,18.41
2017-06-10T07:22:03.721Z,18.42
2017-06-10T07:23:04.014Z,18.44
2017-06-10T07:24:04.311Z,18.41
2017-06-10T07:25:03.961Z,18.41
2017-06-10T07:26:04.261Z,18.47
2017-06-10T07:27:03.947Z,18.44
2017-06-10T07:28:03.932Z,18.41
2017-06-10T07:29:04.332Z,18.6
2017-06-10T07:30:04.312Z,18.55
2017-06-10T07:31:03.891Z,18.52
2017-06-10T07:32:04.164Z,18.56
2017-06-10T07:33:04.161Z,18.7
2017-06-10T07:34:03.528Z,18.58
2017-06-10T07:35:03.821Z,18.5
2017-06-10T07:36:03.796Z,18.6
2017-06-10T07:37:03.851Z,18.75
2017-06-10T07:38:04.072Z,18.78
2017-06-10T07:39:03.748Z,18.8
2017-06-10T07:40:03.753Z,18.92
2017-06-10T07:41:04.105Z,18.97
2017-06-10T07:42:03.714Z,19.21
2017-06-10T07:43:04.020Z,19.34
2017-06-10T07:44:04.000Z,19.31
2017-06-10T07:45:03.993Z,19.18
2017-06-10T07:46:03.953Z,19.22
2017-06-10T07:47:03.970Z,19.08
2017-06-10T07:48:03.624Z,19.14
2017-06-10T07:49:03.601Z,19.11
2017-06-10T07:50:03.895Z,19.21
2017-06-10T07:51:03.892Z,19.3
2017-06-10T07:52:03.913Z,19.34
2017-06-10T07:53:03.881Z,19.38
2017-06-10T07:54:03.536Z,19.4
2017-06-10T07:55:03.521Z,19.53
2017-06-10T07:56:03.205Z,19.55
2017-06-10T07:57:03.821Z,19.59
2017-06-10T07:58:03.476Z,19.69
2017-06-10T07:59:03.476Z,19.78
2017-06-10T08:00:03.460Z,19.95
2017-06-10T08:01:03.751Z,20.04
2017-06-10T08:02:03.743Z,20.18
2017-06-10T08:03:03.090Z,20.22
2017-06-10T08:04:03.691Z,20.32
2017-06-10T08:05:03.379Z,20.33
2017-06-10T08:06:03.366Z,20.48
2017-06-10T08:07:03.651Z,20.55
2017-06-10T08:08:03.031Z,20.43
2017-06-10T08:09:03.640Z,20.35
2017-06-10T08:10:03.322Z,20.57
2017-06-10T08:11:03.625Z,20.43
2017-06-10T08:12:03.643Z,20.2
2017-06-10T08:13:03.576Z,20.31
2017-06-10T08:14:03.570Z,20.36
2017-06-10T08:15:03.563Z,20.57
2017-06-10T08:16:03.535Z,20.67
2017-06-10T08:17:03.518Z,20.47
2017-06-10T08:18:02.892Z,20.52
2017-06-10T08:19:03.185Z,20.52
2017-06-10T08:20:03.489Z,20.55
2017-06-10T08:21:03.474Z,20.44
2017-06-10T08:22:03.144Z,20.47
2017-06-10T08:23:03.436Z,20.54
2017-06-10T08:24:03.433Z,20.74
2017-06-10T08:25:03.108Z,20.79
2017-06-10T08:26:03.404Z,20.7
2017-06-10T08:27:03.490Z,20.63
2017-06-10T08:28:03.360Z,20.62
2017-06-10T08:29:03.352Z,20.81
2017-06-10T08:30:03.052Z,21.04
2017-06-10T08:31:03.354Z,21.11
2017-06-10T08:32:03.443Z,21.18
2017-06-10T08:33:03.000Z,21.19
2017-06-10T08:34:03.009Z,21.17
2017-06-10T08:35:02.972Z,21.24
2017-06-10T08:36:02.979Z,21.28
2017-06-10T08:37:02.952Z,21.49
2017-06-10T08:38:03.058Z,21.59
2017-06-10T08:39:03.244Z,21.68
2017-06-10T08:40:03.334Z,21.64
2017-06-10T08:41:02.905Z,21.49
2017-06-10T08:42:03.201Z,21.49
2017-06-10T08:43:02.869Z,21.58
2017-06-10T08:44:02.559Z,21.56
2017-06-10T08:45:02.851Z,21.52
2017-06-10T08:46:03.142Z,21.5
2017-06-10T08:47:03.137Z,21.5
2017-06-10T08:48:02.573Z,21.47
2017-06-10T08:49:03.104Z,21.56
2017-06-10T08:50:03.160Z,21.58
2017-06-10T08:51:03.174Z,21.5
2017-06-10T08:52:02.784Z,21.59
2017-06-10T08:53:02.507Z,21.59
2017-06-10T08:54:02.742Z,21.62
2017-06-10T08:55:02.723Z,21.59
2017-06-10T08:56:02.723Z,21.76
2017-06-10T08:57:03.056Z,21.81
2017-06-10T08:58:03.002Z,21.76
2017-06-10T08:59:02.685Z,21.88
2017-06-10T09:00:02.972Z,21.84
2017-06-10T09:01:02.674Z,21.59
2017-06-10T09:02:02.645Z,21.59
2017-06-10T09:03:02.939Z,21.56
2017-06-10T09:04:02.624Z,21.54
2017-06-10T09:05:02.596Z,21.65
2017-06-10T09:06:02.592Z,21.7
2017-06-10T09:07:02.871Z,21.8
2017-06-10T09:08:02.863Z,21.88
2017-06-10T09:09:02.874Z,21.56
2017-06-10T09:10:02.549Z,21.64
2017-06-10T09:11:02.834Z,21.79
2017-06-10T09:12:02.505Z,22
2017-06-10T09:13:02.501Z,21.99
2017-06-10T09:14:02.494Z,22.12
2017-06-10T09:15:02.788Z,22.11
2017-06-10T09:16:02.466Z,22.22
2017-06-10T09:17:02.473Z,21.95
2017-06-10T09:18:02.737Z,21.81
2017-06-10T09:19:02.732Z,21.92
2017-06-10T09:20:02.436Z,21.97
2017-06-10T09:21:02.509Z,22.06
2017-06-10T09:22:02.715Z,22.25
2017-06-10T09:23:02.687Z,22.2
2017-06-10T09:24:02.673Z,22.35
2017-06-10T09:25:02.657Z,22.42
2017-06-10T09:26:02.665Z,22.32
2017-06-10T09:27:02.653Z,22.17
2017-06-10T09:28:02.633Z,22.14
2017-06-10T09:29:02.368Z,22.36
2017-06-10T09:30:02.600Z,22.52
2017-06-10T09:31:02.606Z,22.79
2017-06-10T09:32:02.573Z,22.77
2017-06-10T09:33:02.583Z,22.91
2017-06-10T09:34:02.568Z,23.04
2017-06-10T09:35:02.545Z,23.33
2017-06-10T09:36:02.553Z,23.5
2017-06-10T09:37:02.584Z,23.41
2017-06-10T09:38:02.597Z,23.35
2017-06-10T09:39:02.495Z,23.4
2017-06-10T09:40:02.505Z,23.66
2017-06-10T09:41:02.482Z,23.81
2017-06-10T09:42:02.478Z,23.82
2017-06-10T09:43:02.483Z,23.82
2017-06-10T09:44:02.173Z,23.82
2017-06-10T09:45:02.453Z,24.02
2017-06-10T09:46:02.463Z,24.33
2017-06-10T09:47:02.469Z,24.52
2017-06-10T09:48:02.171Z,24.47
2017-06-10T09:49:02.410Z,24.32
2017-06-10T09:50:02.448Z,24.21
2017-06-10T09:51:02.100Z,24.34
2017-06-10T09:52:02.073Z,23.96
2017-06-10T09:53:02.383Z,23.8
2017-06-10T09:54:02.376Z,23.66
2017-06-10T09:55:02.058Z,23.41
2017-06-10T09:56:02.366Z,23.6
2017-06-10T09:57:02.031Z,23.12
2017-06-10T09:58:02.359Z,23.21
2017-06-10T09:59:02.325Z,23.28
2017-06-10T10:00:02.321Z,22.98
2017-06-10T10:01:02.002Z,23.09
2017-06-10T10:02:01.998Z,23.29
2017-06-10T10:03:01.976Z,23.59
2017-06-10T10:04:02.281Z,23.62
2017-06-10T10:05:01.974Z,23.69
2017-06-10T10:06:01.954Z,23.6
2017-06-10T10:07:02.265Z,23.24
2017-06-10T10:08:01.939Z,23.33
2017-06-10T10:09:01.620Z,23.02
2017-06-10T10:10:01.918Z,23.17
2017-06-10T10:11:01.908Z,23.29
2017-06-10T10:12:02.209Z,23.57
2017-06-10T10:13:02.194Z,23.29
2017-06-10T10:14:01.912Z,23.42
2017-06-10T10:15:01.867Z,23.62
2017-06-10T10:16:02.173Z,23.84
2017-06-10T10:17:02.157Z,24
2017-06-10T10:18:01.531Z,24
2017-06-10T10:19:01.832Z,24.22
2017-06-10T10:20:02.150Z,24.25
2017-06-10T10:21:02.117Z,24.47
2017-06-10T10:22:02.112Z,24.82
2017-06-10T10:23:02.094Z,25.02
2017-06-10T10:24:02.104Z,24.87
2017-06-10T10:25:02.071Z,24.57
2017-06-10T10:26:02.082Z,24.36
2017-06-10T10:27:02.073Z,24.1
2017-06-10T10:28:02.051Z,24.18
2017-06-10T10:29:01.743Z,24.39
2017-06-10T10:30:02.048Z,24.66
2017-06-10T10:31:02.031Z,24.59
2017-06-10T10:32:02.088Z,24.84
2017-06-10T10:33:01.700Z,24.92
2017-06-10T10:34:02.034Z,24.97
2017-06-10T10:35:01.991Z,25.14
2017-06-10T10:36:01.980Z,25.26
2017-06-10T10:37:01.671Z,24.99
2017-06-10T10:38:01.658Z,24.96
2017-06-10T10:39:01.650Z,24.87
2017-06-10T10:40:01.961Z,25.12
2017-06-10T10:41:01.966Z,24.84
2017-06-10T10:42:01.932Z,24.59
2017-06-10T10:43:01.932Z,24.58
2017-06-10T10:44:01.302Z,24.58
2017-06-10T10:45:01.607Z,24.39
2017-06-10T10:46:01.903Z,24.4
2017-06-10T10:47:01.894Z,24.14
2017-06-10T10:48:01.884Z,24.1
2017-06-10T10:49:01.561Z,23.69
2017-06-10T10:50:01.561Z,23.95
2017-06-10T10:51:01.862Z,24.12
2017-06-10T10:52:01.932Z,23.89
2017-06-10T10:53:01.224Z,24.15
2017-06-10T10:54:01.824Z,24.43
2017-06-10T10:55:01.821Z,24.28
2017-06-10T10:56:01.492Z,24.36
2017-06-10T10:57:01.517Z,24.44
2017-06-10T10:58:01.795Z,24.36
2017-06-10T10:59:01.772Z,23.97
2017-06-10T11:00:01.469Z,24.17
2017-06-10T11:01:01.764Z,24.04
2017-06-10T11:02:01.761Z,23.92
2017-06-10T11:03:01.740Z,24.1
2017-06-10T11:04:01.432Z,24.15
2017-06-10T11:05:01.420Z,24.34
2017-06-10T11:06:01.412Z,23.99
2017-06-10T11:07:01.449Z,24.12
2017-06-10T11:08:01.383Z,24.12
2017-06-10T11:09:01.703Z,24.44
2017-06-10T11:10:01.410Z,24.52
2017-06-10T11:11:01.123Z,24.57
2017-06-10T11:12:01.350Z,24.78
2017-06-10T11:13:01.646Z,25.02
2017-06-10T11:14:01.350Z,24.99
2017-06-10T11:15:01.422Z,24.92
2017-06-10T11:16:00.999Z,25
2017-06-10T11:17:01.344Z,25.11
2017-06-10T11:18:01.609Z,25.34
2017-06-10T11:19:01.607Z,25.02
2017-06-10T11:20:01.330Z,24.82
2017-06-10T11:21:01.690Z,24.9
2017-06-10T11:22:01.572Z,25.02
2017-06-10T11:23:01.638Z,25.07
2017-06-10T11:24:01.553Z,24.85
2017-06-10T11:25:01.334Z,25
2017-06-10T11:26:01.224Z,24.82
2017-06-10T11:27:01.353Z,25.08
2017-06-10T11:28:01.516Z,25.25
2017-06-10T11:29:01.212Z,25.37
2017-06-10T11:30:01.493Z,25.52
2017-06-10T11:31:01.182Z,25.66
2017-06-10T11:32:01.491Z,25.67
2017-06-10T11:33:01.482Z,25.64
2017-06-10T11:34:01.451Z,25.47
2017-06-10T11:35:01.466Z,25.69
2017-06-10T11:36:01.451Z,25.54
2017-06-10T11:37:01.543Z,25.66
2017-06-10T11:38:01.529Z,25.69
2017-06-10T11:39:01.102Z,25.44
2017-06-10T11:40:01.423Z,25.49
2017-06-10T11:41:01.099Z,25.54
2017-06-10T11:42:01.109Z,25.4
2017-06-10T11:43:01.391Z,25.25
2017-06-10T11:44:01.375Z,25.14
2017-06-10T11:45:01.373Z,25.14
2017-06-10T11:46:01.059Z,25.45
2017-06-10T11:47:01.040Z,25.63
2017-06-10T11:48:01.341Z,25.56
2017-06-10T11:49:01.339Z,25.89
2017-06-10T11:50:01.332Z,26.04
2017-06-10T11:51:00.997Z,26.07
2017-06-10T11:52:01.066Z,25.95
2017-06-10T11:53:00.979Z,26.19
2017-06-10T11:54:01.281Z,26.32
2017-06-10T11:55:00.980Z,26.1
2017-06-10T11:56:01.264Z,25.96
2017-06-10T11:57:00.972Z,26.2
2017-06-10T11:58:00.975Z,26.44
2017-06-10T11:59:01.021Z,26.82
2017-06-10T12:00:00.674Z,26.22
2017-06-10T12:01:00.612Z,25.99
2017-06-10T12:02:00.916Z,26.08
2017-06-10T12:03:01.350Z,26.04
2017-06-10T12:04:01.205Z,25.7
2017-06-10T12:05:01.280Z,25.18
2017-06-10T12:06:01.201Z,25.4
2017-06-10T12:07:01.176Z,25.66
2017-06-10T12:08:00.933Z,26.03
2017-06-10T12:09:01.252Z,26.01
2017-06-10T12:10:01.248Z,25.73
2017-06-10T12:11:01.173Z,25.62
2017-06-10T12:12:01.189Z,25.26
2017-06-10T12:13:01.231Z,25.18
2017-06-10T12:14:01.226Z,25.39
2017-06-10T12:15:01.189Z,25.37
2017-06-10T12:16:01.099Z,24.96
2017-06-10T12:17:00.787Z,25.26
2017-06-10T12:18:01.081Z,25.32
2017-06-10T12:19:01.063Z,25.4
2017-06-10T12:20:01.080Z,25.76
2017-06-10T12:21:00.751Z,26.07
2017-06-10T12:22:00.441Z,25.99
2017-06-10T12:23:00.722Z,26.22
2017-06-10T12:24:01.023Z,26.22
2017-06-10T12:25:00.443Z,25.91
2017-06-10T12:26:01.011Z,25.84
2017-06-10T12:27:01.024Z,26.15
2017-06-10T12:28:00.999Z,26.45
2017-06-10T12:29:00.969Z,26.82
2017-06-10T12:30:00.679Z,26.84
2017-06-10T12:31:00.445Z,26.82
2017-06-10T12:32:00.950Z,26.82
2017-06-10T12:33:00.938Z,26.67
2017-06-10T12:34:00.947Z,26.48
2017-06-10T12:35:00.669Z,26.1
2017-06-10T12:36:00.979Z,26.03
2017-06-10T12:37:00.901Z,26.03
2017-06-10T12:38:00.587Z,26.27
2017-06-10T12:39:00.934Z,26.41
2017-06-10T12:40:00.878Z,26.26
2017-06-10T12:41:00.312Z,25.99
2017-06-10T12:42:00.560Z,26.08
2017-06-10T12:43:00.559Z,26.32
2017-06-10T12:44:00.847Z,26.44
2017-06-10T12:45:00.227Z,26.34
2017-06-10T12:46:00.851Z,26.01
2017-06-10T12:47:00.809Z,26.15
2017-06-10T12:48:00.909Z,25.66
2017-06-10T12:49:00.869Z,25.32
2017-06-10T12:50:00.861Z,25.58
2017-06-10T12:51:00.825Z,25.29
2017-06-10T12:52:00.863Z,25.54
2017-06-10T12:53:00.785Z,25.66
2017-06-10T12:54:00.772Z,25.58
2017-06-10T12:55:00.747Z,25.69
2017-06-10T12:56:00.450Z,25.99